KDSM/DSM METAR and TAF weather

Enter ICAO airport designator
Station Type Date Time Source
KDSM METAR 2022/01/26 19:54 UTC NOAA

KDSM 261954Z 20015KT 10SM FEW250 M05/M13 A3022 RMK AO2 SLP252 T10501133


Station Type Date Time Source
KDSM Decoded METAR 2022/01/26 19:54 UTC NOAA

DES MOINES INTERNATIONAL, IA, United States (KDSM) 41-32N 93-40W 295M
Jan 26, 2022 - 02:54 PM EST / 2022.01.26 1954 UTC
Wind: from the SSW (200 degrees) at 17 MPH (15 KT):0
Visibility: 10 mile(s):0
Sky conditions: mostly clear
Temperature: 23.0 F (-5.0 C)
Windchill: 8 F (-13 C):1
Dew Point: 8.1 F (-13.3 C)
Relative Humidity: 52%
Pressure (altimeter): 30.22 in. Hg (1023 hPa)
ob: KDSM 261954Z 20015KT 10SM FEW250 M05/M13 A3022 RMK AO2 SLP252 T10501133
cycle: 20

Station Type Date Time Source
KDSM TAF 2022/01/26 18:30 UTC NOAA

TAF KDSM 261728Z 2618/2718 20011KT P6SM FEW250
FM262000 20012G20KT P6SM FEW250
FM270100 19012KT P6SM SCT250 WS020/23045KT
FM270800 24010KT P6SM SCT250
FM271500 32010G19KT P6SM SCT250

Example: see airport list